^^
Meteo Knjazevac Station Historical Data
Daily Summary for January 1, 2022 Units:  Both    English   Metric
Daily Weekly Monthly Yearly Custom
  High: Low: Average:
Temperature: 37.5 °F /  3.1 °C 35.9 °F /  2.2 °C 36.7 °F /  2.6 °C
Dew Point: 36.5 °F /  2.5 °C 34.6 °F /  1.4 °C 35.4 °F /  1.9 °C
Humidity: 96% 94% 95%
Wind Speed: 18.1mph /  29.1km/h - 15mph /  24.1km/h
Wind Gust: 22mph /  35.4km/h - -
Wind- - SSW
Pressure: 30.12 in /  1019.9 hPa 30.10 in /  1019.2 hPa -
Precipitation: 0.00 in /  0 mm    
Historical Graphs
 
 
Tabular Data for January 1, 2022
Time Temperature Dew Point Pressure Wind Wind Speed Wind Gust Humidity Rainfall Rate (Hourly) solar Conditions
00:04 37.5 °F /  3.1 °C 36.5 °F /  2.5 °C 30.12in /  1019.9hPa North 12.8mph /  20.6km/h 15mph /  24.1km/h 96% 0.00in /  0mm 0 W/m2
00:09 37.4 °F /  3 °C 36.4 °F /  2.4 °C 30.12in /  1019.9hPa North 13.5mph /  21.7km/h 19mph /  30.6km/h 96% 0.00in /  0mm 0 W/m2
00:14 37.4 °F /  3 °C 36.4 °F /  2.4 °C 30.12in /  1019.9hPa North 12.1mph /  19.5km/h 17mph /  27.4km/h 96% 0.00in /  0mm 0 W/m2
00:19 37.4 °F /  3 °C 36.4 °F /  2.4 °C 30.12in /  1019.9hPa North 14.1mph /  22.7km/h 15mph /  24.1km/h 96% 0.00in /  0mm 0 W/m2
00:24 37.4 °F /  3 °C 36.4 °F /  2.4 °C 30.12in /  1019.9hPa North 12.9mph /  20.8km/h 17mph /  27.4km/h 96% 0.00in /  0mm 0 W/m2
00:29 37.4 °F /  3 °C 36.4 °F /  2.4 °C 30.12in /  1019.9hPa North 14.9mph /  24km/h 15mph /  24.1km/h 96% 0.00in /  0mm 0 W/m2
00:34 37.4 °F /  3 °C 36.4 °F /  2.4 °C 30.12in /  1019.9hPa North 13.9mph /  22.4km/h 17mph /  27.4km/h 96% 0.00in /  0mm 0 W/m2
00:39 37.4 °F /  3 °C 36.4 °F /  2.4 °C 30.12in /  1019.9hPa North 15mph /  24.1km/h 16mph /  25.7km/h 96% 0.00in /  0mm 0 W/m2
00:44 37.4 °F /  3 °C 36.4 °F /  2.4 °C 30.12in /  1019.9hPa North 13.8mph /  22.2km/h 17mph /  27.4km/h 96% 0.00in /  0mm 0 W/m2
00:49 37.4 °F /  3 °C 36.3 °F /  2.4 °C 30.12in /  1019.9hPa North 14.5mph /  23.3km/h 15mph /  24.1km/h 95.6% 0.00in /  0mm 0 W/m2
00:54 37.4 °F /  3 °C 36.1 °F /  2.3 °C 30.11in /  1019.5hPa North 12.7mph /  20.4km/h 18mph /  29km/h 95% 0.00in /  0mm 0 W/m2
00:59 37.4 °F /  3 °C 36.1 °F /  2.3 °C 30.11in /  1019.5hPa North 14.4mph /  23.2km/h 16mph /  25.7km/h 95% 0.00in /  0mm 0 W/m2
01:04 37.5 °F /  3.1 °C 36.2 °F /  2.3 °C 30.11in /  1019.5hPa North 14.1mph /  22.7km/h 19mph /  30.6km/h 95% 0.00in /  0mm 0 W/m2
01:09 37.5 °F /  3.1 °C 36.2 °F /  2.3 °C 30.11in /  1019.5hPa North 17.3mph /  27.8km/h 18mph /  29km/h 95% 0.00in /  0mm 0 W/m2
01:14 37.4 °F /  3 °C 36.1 °F /  2.3 °C 30.11in /  1019.5hPa North 13.9mph /  22.4km/h 21mph /  33.8km/h 95% 0.00in /  0mm 0 W/m2
01:19 37.4 °F /  3 °C 36.1 °F /  2.3 °C 30.11in /  1019.5hPa North 15.7mph /  25.3km/h 17mph /  27.4km/h 95% 0.00in /  0mm 0 W/m2
01:24 37.4 °F /  3 °C 36.1 °F /  2.3 °C 30.11in /  1019.5hPa North 13.6mph /  21.9km/h 22mph /  35.4km/h 95% 0.00in /  0mm 0 W/m2
01:29 37.4 °F /  3 °C 36.1 °F /  2.3 °C 30.11in /  1019.5hPa North 9.8mph /  15.8km/h 15mph /  24.1km/h 95% 0.00in /  0mm 0 W/m2
01:34 37.4 °F /  3 °C 36.1 °F /  2.3 °C 30.12in /  1019.9hPa North 16mph /  25.7km/h 15mph /  24.1km/h 95% 0.00in /  0mm 0 W/m2
01:39 37.2 °F /  2.9 °C 35.9 °F /  2.2 °C 30.11in /  1019.5hPa North 16.6mph /  26.7km/h 22mph /  35.4km/h 95% 0.00in /  0mm 0 W/m2
01:44 37.2 °F /  2.9 °C 35.9 °F /  2.2 °C 30.12in /  1019.9hPa North 12.4mph /  20km/h 18mph /  29km/h 95% 0.00in /  0mm 0 W/m2
01:49 37.2 °F /  2.9 °C 35.9 °F /  2.2 °C 30.12in /  1019.9hPa North 13.8mph /  22.2km/h 14mph /  22.5km/h 95% 0.00in /  0mm 0 W/m2
01:54 37.2 °F /  2.9 °C 35.9 °F /  2.2 °C 30.12in /  1019.9hPa North 15.1mph /  24.3km/h 17mph /  27.4km/h 95% 0.00in /  0mm 0 W/m2
01:59 37.2 °F /  2.9 °C 35.9 °F /  2.2 °C 30.11in /  1019.5hPa North 16.6mph /  26.7km/h 20mph /  32.2km/h 94.9% 0.00in /  0mm 0 W/m2
02:04 37.2 °F /  2.9 °C 35.8 °F /  2.1 °C 30.11in /  1019.5hPa North 14.6mph /  23.5km/h 19mph /  30.6km/h 94.4% 0.00in /  0mm 0 W/m2
02:09 37.2 °F /  2.9 °C 35.9 °F /  2.2 °C 30.11in /  1019.5hPa North 14.5mph /  23.3km/h 21mph /  33.8km/h 95% 0.00in /  0mm 0 W/m2
02:14 37.2 °F /  2.9 °C 35.9 °F /  2.2 °C 30.11in /  1019.5hPa North 12.7mph /  20.4km/h 17mph /  27.4km/h 95% 0.00in /  0mm 0 W/m2
02:19 37.2 °F /  2.9 °C 35.8 °F /  2.1 °C 30.11in /  1019.5hPa North 16.1mph /  25.9km/h 16mph /  25.7km/h 94.3% 0.00in /  0mm 0 W/m2
02:24 37.2 °F /  2.9 °C 35.7 °F /  2.1 °C 30.11in /  1019.5hPa North 15.2mph /  24.5km/h 18mph /  29km/h 94.2% 0.00in /  0mm 0 W/m2
02:29 37.1 °F /  2.8 °C 35.8 °F /  2.1 °C 30.11in /  1019.5hPa North 13.8mph /  22.2km/h 18mph /  29km/h 95% 0.00in /  0mm 0 W/m2
02:34 37 °F /  2.8 °C 35.7 °F /  2.1 °C 30.11in /  1019.5hPa North 14.4mph /  23.2km/h 16mph /  25.7km/h 95% 0.00in /  0mm 0 W/m2
02:39 37 °F /  2.8 °C 35.6 °F /  2 °C 30.11in /  1019.5hPa North 17.9mph /  28.8km/h 20mph /  32.2km/h 94.6% 0.00in /  0mm 0 W/m2
02:44 37 °F /  2.8 °C 35.7 °F /  2.1 °C 30.11in /  1019.5hPa North 17.3mph /  27.8km/h 20mph /  32.2km/h 95% 0.00in /  0mm 0 W/m2
02:49 37 °F /  2.8 °C 35.7 °F /  2.1 °C 30.11in /  1019.5hPa North 13.7mph /  22km/h 20mph /  32.2km/h 95% 0.00in /  0mm 0 W/m2
02:54 37 °F /  2.8 °C 35.7 °F /  2.1 °C 30.11in /  1019.5hPa North 16.2mph /  26.1km/h 15mph /  24.1km/h 95% 0.00in /  0mm 0 W/m2
02:59 37 °F /  2.8 °C 35.7 °F /  2.1 °C 30.11in /  1019.5hPa North 15.1mph /  24.3km/h 21mph /  33.8km/h 95% 0.00in /  0mm 0 W/m2
03:04 36.9 °F /  2.7 °C 35.5 °F /  1.9 °C 30.11in /  1019.5hPa North 13.9mph /  22.4km/h 20mph /  32.2km/h 94.8% 0.00in /  0mm 0 W/m2
03:09 36.9 °F /  2.7 °C 35.3 °F /  1.8 °C 30.11in /  1019.5hPa North 16.5mph /  26.6km/h 18mph /  29km/h 94% 0.00in /  0mm 0 W/m2
03:14 36.9 °F /  2.7 °C 35.3 °F /  1.8 °C 30.10in /  1019.2hPa North 17.3mph /  27.8km/h 21mph /  33.8km/h 94.2% 0.00in /  0mm 0 W/m2
03:19 36.9 °F /  2.7 °C 35.6 °F /  2 °C 30.11in /  1019.5hPa North 13.7mph /  22km/h 21mph /  33.8km/h 95% 0.00in /  0mm 0 W/m2
03:24 36.7 °F /  2.6 °C 35.4 °F /  1.9 °C 30.11in /  1019.5hPa North 14mph /  22.5km/h 16mph /  25.7km/h 95% 0.00in /  0mm 0 W/m2
03:29 36.7 °F /  2.6 °C 35.4 °F /  1.9 °C 30.11in /  1019.5hPa North 13.9mph /  22.4km/h 16mph /  25.7km/h 95% 0.00in /  0mm 0 W/m2
03:34 36.6 °F /  2.6 °C 35.3 °F /  1.8 °C 30.11in /  1019.5hPa North 12.6mph /  20.3km/h 16mph /  25.7km/h 95% 0.00in /  0mm 0 W/m2
03:39 36.5 °F /  2.5 °C 35.2 °F /  1.8 °C 30.11in /  1019.5hPa North 16.4mph /  26.4km/h 20mph /  32.2km/h 95% 0.00in /  0mm 0 W/m2
03:44 36.4 °F /  2.4 °C 35.3 °F /  1.8 °C 30.11in /  1019.5hPa North 12.7mph /  20.4km/h 20mph /  32.2km/h 95.6% 0.00in /  0mm 0 W/m2
03:49 36.3 °F /  2.4 °C 35.3 °F /  1.8 °C 30.11in /  1019.5hPa North 14.8mph /  23.8km/h 16mph /  25.7km/h 96% 0.00in /  0mm 0 W/m2
03:54 36.3 °F /  2.4 °C 35.3 °F /  1.8 °C 30.10in /  1019.2hPa North 14.8mph /  23.8km/h 16mph /  25.7km/h 96% 0.00in /  0mm 0 W/m2
03:59 36.3 °F /  2.4 °C 35.3 °F /  1.8 °C 30.10in /  1019.2hPa North 15.2mph /  24.5km/h 20mph /  32.2km/h 96% 0.00in /  0mm 0 W/m2
04:04 36.3 °F /  2.4 °C 35.3 °F /  1.8 °C 30.10in /  1019.2hPa North 15.8mph /  25.4km/h 16mph /  25.7km/h 96% 0.00in /  0mm 0 W/m2
04:09 36.3 °F /  2.4 °C 35.3 °F /  1.8 °C 30.10in /  1019.2hPa North 13.3mph /  21.4km/h 17mph /  27.4km/h 96% 0.00in /  0mm 0 W/m2
04:14 36.3 °F /  2.4 °C 35.2 °F /  1.8 °C 30.10in /  1019.2hPa North 17.6mph /  28.3km/h 17mph /  27.4km/h 95.7% 0.00in /  0mm 0 W/m2
04:19 36.3 °F /  2.4 °C 35 °F /  1.7 °C 30.10in /  1019.2hPa North 16.5mph /  26.6km/h 22mph /  35.4km/h 95% 0.00in /  0mm 0 W/m2
04:24 36.3 °F /  2.4 °C 35 °F /  1.7 °C 30.10in /  1019.2hPa North 16mph /  25.7km/h 19mph /  30.6km/h 95% 0.00in /  0mm 0 W/m2
04:29 36.3 °F /  2.4 °C 35 °F /  1.7 °C 30.11in /  1019.5hPa North 15.4mph /  24.8km/h 20mph /  32.2km/h 95% 0.00in /  0mm 0 W/m2
04:34 36.3 °F /  2.4 °C 35 °F /  1.7 °C 30.11in /  1019.5hPa North 15.7mph /  25.3km/h 18mph /  29km/h 95% 0.00in /  0mm 0 W/m2
04:39 36.3 °F /  2.4 °C 35 °F /  1.7 °C 30.10in /  1019.2hPa North 16.5mph /  26.6km/h 18mph /  29km/h 95% 0.00in /  0mm 0 W/m2
04:44 36.3 °F /  2.4 °C 35 °F /  1.7 °C 30.10in /  1019.2hPa North 15.3mph /  24.6km/h 19mph /  30.6km/h 95% 0.00in /  0mm 0 W/m2
04:49 36.3 °F /  2.4 °C 35 °F /  1.7 °C 30.10in /  1019.2hPa North 14.8mph /  23.8km/h 19mph /  30.6km/h 95% 0.00in /  0mm 0 W/m2
04:54 36.3 °F /  2.4 °C 35 °F /  1.7 °C 30.10in /  1019.2hPa North 16.5mph /  26.6km/h 17mph /  27.4km/h 95% 0.00in /  0mm 0 W/m2
04:59 36.3 °F /  2.4 °C 35 °F /  1.7 °C 30.10in /  1019.2hPa North 14.2mph /  22.9km/h 21mph /  33.8km/h 94.8% 0.00in /  0mm 0 W/m2
05:04 36.3 °F /  2.4 °C 34.8 °F /  1.6 °C 30.10in /  1019.2hPa North 14.8mph /  23.8km/h 17mph /  27.4km/h 94% 0.00in /  0mm 0 W/m2
05:09 36.3 °F /  2.4 °C 34.8 °F /  1.6 °C 30.10in /  1019.2hPa North 13.6mph /  21.9km/h 17mph /  27.4km/h 94% 0.00in /  0mm 0 W/m2
05:14 36.3 °F /  2.4 °C 34.8 °F /  1.6 °C 30.10in /  1019.2hPa North 15.9mph /  25.6km/h 16mph /  25.7km/h 94% 0.00in /  0mm 0 W/m2
05:19 36.3 °F /  2.4 °C 34.8 °F /  1.6 °C 30.10in /  1019.2hPa North 12.9mph /  20.8km/h 20mph /  32.2km/h 94% 0.00in /  0mm 0 W/m2
05:24 36.3 °F /  2.4 °C 34.8 °F /  1.6 °C 30.10in /  1019.2hPa North 14.2mph /  22.9km/h 17mph /  27.4km/h 94% 0.00in /  0mm 0 W/m2
05:29 36.3 °F /  2.4 °C 34.8 °F /  1.6 °C 30.10in /  1019.2hPa North 15.3mph /  24.6km/h 21mph /  33.8km/h 94% 0.00in /  0mm 0 W/m2
05:34 36.3 °F /  2.4 °C 34.8 °F /  1.6 °C 30.10in /  1019.2hPa North 15.7mph /  25.3km/h 21mph /  33.8km/h 94% 0.00in /  0mm 0 W/m2
05:39 36.3 °F /  2.4 °C 34.8 °F /  1.6 °C 30.10in /  1019.2hPa North 17.2mph /  27.7km/h 20mph /  32.2km/h 94% 0.00in /  0mm 0 W/m2
05:44 36.2 °F /  2.3 °C 34.7 °F /  1.5 °C 30.10in /  1019.2hPa North 14.9mph /  24km/h 22mph /  35.4km/h 94% 0.00in /  0mm 0 W/m2
05:49 36.2 °F /  2.3 °C 34.7 °F /  1.5 °C 30.10in /  1019.2hPa North 15.3mph /  24.6km/h 18mph /  29km/h 94% 0.00in /  0mm 0 W/m2
05:54 36.1 °F /  2.3 °C 34.6 °F /  1.4 °C 30.10in /  1019.2hPa North 15.9mph /  25.6km/h 19mph /  30.6km/h 94% 0.00in /  0mm 0 W/m2
05:59 36.1 °F /  2.3 °C 34.7 °F /  1.5 °C 30.10in /  1019.2hPa North 18mph /  29km/h 20mph /  32.2km/h 94.6% 0.00in /  0mm 0 W/m2
06:04 36.1 °F /  2.3 °C 34.6 °F /  1.4 °C 30.10in /  1019.2hPa North 16.1mph /  25.9km/h 20mph /  32.2km/h 94% 0.00in /  0mm 0 W/m2
06:09 36.1 °F /  2.3 °C 34.6 °F /  1.4 °C 30.10in /  1019.2hPa North 15.9mph /  25.6km/h 18mph /  29km/h 94% 0.00in /  0mm 0 W/m2
06:14 36.1 °F /  2.3 °C 34.6 °F /  1.4 °C 30.10in /  1019.2hPa North 16.6mph /  26.7km/h 17mph /  27.4km/h 94% 0.00in /  0mm 0 W/m2
06:19 36.1 °F /  2.3 °C 34.6 °F /  1.4 °C 30.10in /  1019.2hPa North 17.5mph /  28.2km/h 19mph /  30.6km/h 94% 0.00in /  0mm 0 W/m2
06:24 36.1 °F /  2.3 °C 34.7 °F /  1.5 °C 30.10in /  1019.2hPa North 18.1mph /  29.1km/h 21mph /  33.8km/h 94.7% 0.00in /  0mm 0 W/m2
06:29 36.1 °F /  2.3 °C 34.8 °F /  1.6 °C 30.10in /  1019.2hPa North 15.6mph /  25.1km/h 21mph /  33.8km/h 95% 0.00in /  0mm 0 W/m2
06:34 36 °F /  2.2 °C 34.7 °F /  1.5 °C 30.10in /  1019.2hPa North 17.2mph /  27.7km/h 18mph /  29km/h 95% 0.00in /  0mm 0 W/m2
06:39 36 °F /  2.2 °C 34.7 °F /  1.5 °C 30.10in /  1019.2hPa North 15.3mph /  24.6km/h 22mph /  35.4km/h 95% 0.00in /  0mm 1 W/m2
06:44 36 °F /  2.2 °C 34.7 °F /  1.5 °C 30.10in /  1019.2hPa North 15mph /  24.1km/h 18mph /  29km/h 95% 0.00in /  0mm 2 W/m2
06:49 36 °F /  2.2 °C 34.7 °F /  1.5 °C 30.10in /  1019.2hPa North 15mph /  24.1km/h 16mph /  25.7km/h 95% 0.00in /  0mm 3 W/m2
06:54 36 °F /  2.2 °C 34.7 °F /  1.5 °C 30.10in /  1019.2hPa North 16.2mph /  26.1km/h 17mph /  27.4km/h 95% 0.00in /  0mm 7 W/m2
06:59 36 °F /  2.2 °C 34.8 °F /  1.6 °C 30.10in /  1019.2hPa North 15.5mph /  24.9km/h 18mph /  29km/h 95.7% 0.00in /  0mm 10 W/m2
07:04 36 °F /  2.2 °C 34.7 °F /  1.5 °C 30.10in /  1019.2hPa North 16.3mph /  26.2km/h 20mph /  32.2km/h 95.1% 0.00in /  0mm 14 W/m2
07:09 35.9 °F /  2.2 °C 34.8 °F /  1.6 °C 30.10in /  1019.2hPa North 13.1mph /  21.1km/h 20mph /  32.2km/h 95.9% 0.00in /  0mm 17 W/m2
Knjazevac, Serbia
Compliments of Weather Underground - 2 mb